Time;durP1;ratioP1;P1;durP2;ratioP2;P2;SDS_P1;SDS_P2;PMS_P1;PMS_P2;Temp;Humidity;BMP_temperature;BMP_pressure;BME280_temperature;BME280_humidity;BME280_pressure;Samples;Min_cycle;Max_cycle;Signal;HPM_P1;HPM_P2
2021/09/14 00:00:08;;;;;;;;;;;;;;;11.21;76.53;97447.12;116208;1179;68240;-68
2021/09/14 00:03:01;;;;;;;;;;;;;;;11.18;76.09;97447.14;116182;1181;60350;-69
2021/09/14 00:05:32;;;;;;;;;;;;;;;11.16;75.51;97450.91;116199;1182;60330;-69
2021/09/14 00:08:02;;;;;;;;;;;;;;;11.14;76.99;97451.96;116328;1181;71360;-69
2021/09/14 00:10:32;;;;;;;;;;;;;;;11.12;77.67;97454.91;116193;1181;68830;-68
2021/09/14 00:13:02;;;;;;;;;;;;;;;11.11;76.85;97453.99;116200;1182;69266;-68
2021/09/14 00:15:33;;;;;;;;;;;;;;;11.11;74.94;97452.51;116183;1181;60342;-71
2021/09/14 00:18:02;;;;;;;;;;;;;;;11.12;76.51;97451.06;116358;1181;60342;-69
2021/09/14 00:20:32;;;;;;;;;;;;;;;11.11;78.66;97448.35;116363;1181;71525;-69
2021/09/14 00:23:03;;;;;;;;;;;;;;;11.04;79.60;97449.57;116290;1181;69008;-70
2021/09/14 00:25:32;;;;;;;;;;;;;;;10.99;78.27;97452.61;116283;1181;68403;-69
2021/09/14 00:28:03;;;;;;;;;;;;;;;10.94;78.88;97457.67;116376;1179;60320;-69
2021/09/14 00:30:33;;;;;;;;;;;;;;;10.93;77.49;97456.20;116320;1179;60314;-70
2021/09/14 00:33:03;;;;;;;;;;;;;;;10.92;77.85;97456.56;116233;1179;71405;-69
2021/09/14 00:35:32;;;;;;;;;;;;;;;10.92;76.53;97456.75;116258;1182;68239;-69
2021/09/14 00:38:01;;;;;;;;;;;;;;;10.94;74.87;97456.63;116317;1182;68490;-70
2021/09/14 00:40:31;;;;;;;;;;;;;;;10.94;75.70;97456.91;116188;1182;60340;-70
2021/09/14 00:43:02;;;;;;;;;;;;;;;10.91;76.74;97457.34;116192;1181;60325;-68
2021/09/14 00:45:32;;;;;;;;;;;;;;;10.90;76.43;97459.86;116266;1181;72241;-68
2021/09/14 00:48:02;;;;;;;;;;;;;;;10.88;76.41;97462.29;116159;1183;68343;-69
2021/09/14 00:50:32;;;;;;;;;;;;;;;10.86;78.58;97462.27;116249;1178;69176;-67
2021/09/14 00:53:02;;;;;;;;;;;;;;;10.84;78.54;97466.94;116149;1181;60365;-67
2021/09/14 00:55:33;;;;;;;;;;;;;;;10.81;76.45;97462.06;116223;1181;60294;-68
2021/09/14 00:58:03;;;;;;;;;;;;;;;10.79;77.73;97463.30;116481;1181;71480;-70
2021/09/14 01:00:33;;;;;;;;;;;;;;;10.77;77.95;97465.89;116276;1181;67274;-69
2021/09/14 01:03:03;;;;;;;;;;;;;;;10.75;78.01;97464.79;116225;1181;68246;-68
2021/09/14 01:05:33;;;;;;;;;;;;;;;10.74;78.13;97468.22;116232;1178;60366;-68
2021/09/14 01:08:02;;;;;;;;;;;;;;;10.73;77.24;97468.28;116256;1181;60381;-68
2021/09/14 01:10:32;;;;;;;;;;;;;;;10.71;79.65;97469.78;116292;1181;71248;-67
2021/09/14 01:13:01;;;;;;;;;;;;;;;10.71;78.96;97468.74;116303;1182;69168;-67
2021/09/14 01:15:31;;;;;;;;;;;;;;;10.72;78.57;97469.90;116114;1181;68480;-70
2021/09/14 01:18:03;;;;;;;;;;;;;;;10.73;76.17;97475.08;116131;1178;60791;-68
2021/09/14 01:20:32;;;;;;;;;;;;;;;10.72;75.92;97468.86;116450;1181;60330;-68
2021/09/14 01:23:02;;;;;;;;;;;;;;;10.71;75.77;97466.50;116236;1182;72212;-68
2021/09/14 01:25:34;;;;;;;;;;;;;;;10.68;76.17;97464.04;116316;1181;68454;-68
2021/09/14 01:28:06;;;;;;;;;;;;;;;10.70;74.76;97460.27;116323;1182;69177;-69
2021/09/14 01:30:37;;;;;;;;;;;;;;;10.66;77.12;97461.23;116251;1179;60342;-69
2021/09/14 01:33:07;;;;;;;;;;;;;;;10.63;76.51;97463.59;116241;1180;60337;-69
2021/09/14 01:35:38;;;;;;;;;;;;;;;10.58;78.43;97471.05;116304;1179;71440;-69
2021/09/14 01:38:12;;;;;;;;;;;;;;;10.53;78.82;97472.34;116130;1181;68475;-69
2021/09/14 01:40:47;;;;;;;;;;;;;;;10.50;77.23;97473.58;116014;1182;69187;-69
2021/09/14 01:43:18;;;;;;;;;;;;;;;10.49;75.82;97475.02;116308;1179;60367;-68
2021/09/14 01:45:48;;;;;;;;;;;;;;;10.48;76.39;97470.93;116225;1179;60432;-66
2021/09/14 01:48:26;;;;;;;;;;;;;;;10.46;77.76;97473.30;116197;1181;72190;-69
2021/09/14 01:50:56;;;;;;;;;;;;;;;10.45;76.67;97471.35;116171;1181;69020;-67
2021/09/14 01:53:28;;;;;;;;;;;;;;;10.43;77.61;97468.13;116267;1182;69400;-67
2021/09/14 01:56:05;;;;;;;;;;;;;;;10.43;77.38;97469.91;116314;1181;60355;-69
2021/09/14 01:58:41;;;;;;;;;;;;;;;10.41;76.70;97469.51;116271;1178;60367;-68
2021/09/14 02:01:30;;;;;;;;;;;;;;;10.40;75.73;97466.63;116287;1181;72001;-67
2021/09/14 02:59:40;;;;;;;;;;;;;;;10.02;83.30;97491.76;116187;1178;68579;-69
2021/09/14 03:02:10;;;;;;;;;;;;;;;10.01;80.93;97490.75;116120;1181;68397;-72
2021/09/14 03:04:40;;;;;;;;;;;;;;;10.01;79.80;97494.05;116216;1179;60327;-70
2021/09/14 03:07:09;;;;;;;;;;;;;;;10.00;80.25;97496.02;116230;1182;60386;-69
2021/09/14 03:09:41;;;;;;;;;;;;;;;10.01;78.74;97492.86;116239;1182;71957;-69
2021/09/14 03:12:10;;;;;;;;;;;;;;;10.03;78.88;97492.89;116236;1179;69171;-68
2021/09/14 03:14:44;;;;;;;;;;;;;;;10.05;78.30;97495.83;116143;1181;68209;-68
2021/09/14 03:17:14;;;;;;;;;;;;;;;10.08;79.60;97494.98;116063;1182;60355;-68
2021/09/14 03:19:44;;;;;;;;;;;;;;;10.09;80.51;97499.63;116180;1182;60352;-69
2021/09/14 03:22:14;;;;;;;;;;;;;;;10.11;79.53;97499.12;116228;1181;71564;-69
2021/09/14 03:24:45;;;;;;;;;;;;;;;10.15;76.94;97498.28;116179;1179;69149;-68
2021/09/14 03:27:15;;;;;;;;;;;;;;;10.22;77.18;97502.52;116109;1181;68432;-67
2021/09/14 03:29:44;;;;;;;;;;;;;;;10.25;77.54;97503.58;116206;1179;60384;-67
2021/09/14 03:32:14;;;;;;;;;;;;;;;10.28;79.15;97505.98;116083;1180;60383;-67
2021/09/14 03:34:43;;;;;;;;;;;;;;;10.30;79.79;97508.79;116165;1182;71356;-69
2021/09/14 03:37:12;;;;;;;;;;;;;;;10.33;79.90;97508.39;116172;1179;68353;-67
2021/09/14 03:39:42;;;;;;;;;;;;;;;10.36;80.79;97513.41;116141;1178;69039;-66
2021/09/14 03:42:16;;;;;;;;;;;;;;;10.39;81.03;97511.80;116183;1181;60409;-70
2021/09/14 03:44:46;;;;;;;;;;;;;;;10.43;79.63;97514.31;116045;1182;60327;-71
2021/09/14 03:47:17;;;;;;;;;;;;;;;10.48;79.58;97516.73;116186;1179;70375;-69
2021/09/14 03:49:48;;;;;;;;;;;;;;;10.53;79.56;97517.65;116140;1181;68411;-69
2021/09/14 03:52:18;;;;;;;;;;;;;;;10.56;80.75;97522.27;116086;1182;68536;-69
2021/09/14 03:54:47;;;;;;;;;;;;;;;10.60;78.87;97520.77;115983;1183;60346;-68
2021/09/14 03:57:17;;;;;;;;;;;;;;;10.64;79.45;97519.64;116115;1181;60308;-68
2021/09/14 03:59:47;;;;;;;;;;;;;;;10.68;78.43;97519.66;116296;1181;71478;-69
2021/09/14 04:05:04;;;;;;;;;;;;;;;10.76;80.91;97526.80;116111;1182;68349;-68
2021/09/14 04:10:22;;;;;;;;;;;;;;;10.75;80.91;97526.14;116111;1181;60375;-68
2021/09/14 04:12:51;;;;;;;;;;;;;;;10.75;79.05;97527.20;116176;1181;72283;-68
2021/09/14 04:15:20;;;;;;;;;;;;;;;10.77;79.18;97527.75;116093;1182;69175;-67
2021/09/14 04:17:50;;;;;;;;;;;;;;;10.80;79.97;97530.50;116135;1181;69353;-68
2021/09/14 04:20:20;;;;;;;;;;;;;;;10.84;81.16;97531.59;116300;1178;60359;-68
2021/09/14 04:22:49;;;;;;;;;;;;;;;10.88;79.74;97529.41;116234;1179;60648;-68
2021/09/14 04:25:19;;;;;;;;;;;;;;;10.92;78.78;97531.41;116034;1183;70601;-69
2021/09/14 04:27:49;;;;;;;;;;;;;;;10.95;79.75;97538.98;116064;1178;69300;-67
2021/09/14 04:30:19;;;;;;;;;;;;;;;10.97;79.31;97537.47;116247;1183;68920;-67
2021/09/14 04:32:48;;;;;;;;;;;;;;;11.00;78.73;97536.75;116186;1180;60373;-65
2021/09/14 04:35:17;;;;;;;;;;;;;;;11.02;78.28;97539.71;116235;1182;60361;-68
2021/09/14 04:37:47;;;;;;;;;;;;;;;11.06;78.01;97539.74;116095;1182;72153;-68
2021/09/14 04:40:17;;;;;;;;;;;;;;;11.10;77.26;97535.85;116108;1183;69041;-69
2021/09/14 04:42:46;;;;;;;;;;;;;;;11.13;76.78;97538.73;116089;1182;69071;-68
2021/09/14 04:45:16;;;;;;;;;;;;;;;11.16;75.93;97536.61;116120;1182;60301;-68
2021/09/14 04:47:46;;;;;;;;;;;;;;;11.17;76.28;97536.85;116079;1178;60333;-69
2021/09/14 04:50:15;;;;;;;;;;;;;;;11.20;76.19;97541.54;116053;1184;71618;-68
2021/09/14 04:52:45;;;;;;;;;;;;;;;11.24;78.02;97543.38;116110;1184;69039;-67
2021/09/14 04:55:14;;;;;;;;;;;;;;;11.28;76.67;97548.00;116121;1182;69347;-66
2021/09/14 04:57:44;;;;;;;;;;;;;;;11.31;76.44;97548.05;116032;1181;60368;-70
2021/09/14 05:00:15;;;;;;;;;;;;;;;11.38;75.38;97547.77;116104;1184;60350;-68
2021/09/14 05:02:45;;;;;;;;;;;;;;;11.43;76.29;97552.06;116108;1180;71357;-68
2021/09/14 05:05:14;;;;;;;;;;;;;;;11.48;77.85;97557.30;116101;1182;69254;-68
2021/09/14 05:07:44;;;;;;;;;;;;;;;11.54;77.45;97556.54;115881;1184;69053;-68
2021/09/14 05:10:14;;;;;;;;;;;;;;;11.58;77.20;97550.44;116087;1179;60451;-68
2021/09/14 05:12:49;;;;;;;;;;;;;;;11.64;76.41;97550.52;116212;1182;60324;-68
2021/09/14 05:15:18;;;;;;;;;;;;;;;11.68;77.53;97556.68;116050;1183;72118;-68
2021/09/14 05:18:10;;;;;;;;;;;;;;;11.75;76.74;97551.95;116162;1182;67320;-67
2021/09/14 05:20:42;;;;;;;;;;;;;;;11.85;76.17;97554.70;116290;1181;68690;-69
2021/09/14 05:23:14;;;;;;;;;;;;;;;11.94;76.75;97557.36;116286;1181;60320;-67
2021/09/14 05:25:45;;;;;;;;;;;;;;;12.04;76.60;97557.33;116431;1181;60375;-66
2021/09/14 05:28:14;;;;;;;;;;;;;;;12.14;76.23;97560.00;116387;1181;71979;-67
2021/09/14 05:30:44;;;;;;;;;;;;;;;12.26;75.20;97565.05;116262;1181;68229;-68
2021/09/14 05:33:13;;;;;;;;;;;;;;;12.37;74.86;97565.24;116378;1181;69281;-69
2021/09/14 05:35:42;;;;;;;;;;;;;;;12.48;74.75;97566.10;116233;1181;60367;-67
2021/09/14 05:38:16;;;;;;;;;;;;;;;12.61;76.08;97570.17;116404;1178;60368;-67
2021/09/14 05:40:47;;;;;;;;;;;;;;;12.74;75.27;97573.90;116419;1181;71966;-69
2021/09/14 05:43:24;;;;;;;;;;;;;;;12.89;75.17;97573.05;116352;1178;69311;-68
2021/09/14 05:45:54;;;;;;;;;;;;;;;13.01;75.10;97572.81;116450;1178;69053;-66
2021/09/14 05:48:30;;;;;;;;;;;;;;;13.05;75.13;97573.90;116421;1178;60362;-69
2021/09/14 05:50:58;;;;;;;;;;;;;;;13.08;75.87;97577.33;116231;1179;60354;-67
2021/09/14 05:53:29;;;;;;;;;;;;;;;13.17;74.73;97577.14;116286;1182;72382;-68
2021/09/14 05:55:58;;;;;;;;;;;;;;;13.30;74.35;97571.50;116234;1179;69079;-66
2021/09/14 05:58:31;;;;;;;;;;;;;;;13.44;74.45;97574.61;116336;1179;68729;-65
2021/09/14 06:01:00;;;;;;;;;;;;;;;13.61;73.84;97568.96;116292;1181;60342;-66
2021/09/14 06:03:30;;;;;;;;;;;;;;;13.83;74.21;97566.33;116160;1181;60336;-68
2021/09/14 06:06:00;;;;;;;;;;;;;;;14.05;73.58;97565.98;116232;1180;72082;-65
2021/09/14 06:08:31;;;;;;;;;;;;;;;14.35;73.28;97567.98;116141;1180;69177;-66
2021/09/14 06:11:01;;;;;;;;;;;;;;;14.69;72.90;97567.55;116237;1181;68250;-67
2021/09/14 06:13:30;;;;;;;;;;;;;;;15.05;72.33;97571.80;116147;1181;60340;-66
2021/09/14 06:16:01;;;;;;;;;;;;;;;15.39;71.36;97569.98;116188;1178;60363;-66
2021/09/14 06:18:31;;;;;;;;;;;;;;;15.71;71.11;97567.27;116385;1181;72142;-66
2021/09/14 06:21:01;;;;;;;;;;;;;;;16.06;70.22;97569.00;116225;1179;68349;-66
2021/09/14 06:23:29;;;;;;;;;;;;;;;16.44;70.37;97570.17;116099;1178;69406;-68
2021/09/14 06:26:00;;;;;;;;;;;;;;;17.05;68.29;97574.75;116359;1181;60359;-66
2021/09/14 06:28:31;;;;;;;;;;;;;;;17.76;67.20;97573.13;116259;1178;60318;-67
2021/09/14 06:31:00;;;;;;;;;;;;;;;18.35;64.12;97578.42;116149;1179;72090;-67
2021/09/14 06:33:31;;;;;;;;;;;;;;;18.93;63.11;97583.21;116276;1179;68440;-66
2021/09/14 06:36:01;;;;;;;;;;;;;;;19.43;61.10;97583.29;116258;1181;68301;-67
2021/09/14 06:38:32;;;;;;;;;;;;;;;19.93;60.35;97584.69;116221;1182;60439;-67
2021/09/14 06:41:01;;;;;;;;;;;;;;;20.18;55.49;97579.98;116125;1182;60350;-67
2021/09/14 06:43:35;;;;;;;;;;;;;;;20.53;53.91;97582.66;116211;1181;71353;-67
2021/09/14 06:46:22;;;;;;;;;;;;;;;20.91;53.13;97586.09;116340;1179;68991;-67
2021/09/14 06:48:57;;;;;;;;;;;;;;;20.95;51.25;97587.58;116114;1179;68428;-68
2021/09/14 06:51:26;;;;;;;;;;;;;;;21.14;51.54;97588.42;116301;1177;60708;-67
2021/09/14 06:53:55;;;;;;;;;;;;;;;21.42;50.87;97592.19;116266;1178;60761;-69
2021/09/14 06:56:24;;;;;;;;;;;;;;;21.89;50.97;97590.66;116289;1178;72033;-68
2021/09/14 06:58:54;;;;;;;;;;;;;;;22.35;49.91;97592.68;116370;1180;69133;-68
2021/09/14 07:01:22;;;;;;;;;;;;;;;22.88;49.42;97596.20;116237;1181;68409;-67
2021/09/14 07:03:52;;;;;;;;;;;;;;;23.25;46.98;97594.67;116209;1181;60353;-68
2021/09/14 07:06:21;;;;;;;;;;;;;;;23.66;46.46;97603.38;116168;1178;60419;-68
2021/09/14 07:08:50;;;;;;;;;;;;;;;23.01;45.70;97599.94;116176;1182;72081;-68
2021/09/14 07:11:19;;;;;;;;;;;;;;;22.42;46.96;97595.23;116186;1182;68520;-67
2021/09/14 07:13:47;;;;;;;;;;;;;;;21.92;48.37;97600.42;116320;1176;68273;-68
2021/09/14 07:16:16;;;;;;;;;;;;;;;22.20;48.33;97603.48;116218;1181;60352;-67
2021/09/14 07:18:46;;;;;;;;;;;;;;;22.06;48.06;97600.85;116262;1178;60347;-67
2021/09/14 07:21:15;;;;;;;;;;;;;;;22.08;48.25;97603.46;116272;1177;70813;-67
2021/09/14 07:23:44;;;;;;;;;;;;;;;22.33;49.05;97604.82;116265;1181;68279;-68
2021/09/14 07:26:13;;;;;;;;;;;;;;;21.76;48.96;97607.43;116267;1181;69248;-68
2021/09/14 07:28:41;;;;;;;;;;;;;;;22.23;48.44;97606.95;116224;1182;60413;-68
2021/09/14 07:31:11;;;;;;;;;;;;;;;21.22;50.67;97611.64;116244;1181;60320;-68
2021/09/14 07:33:40;;;;;;;;;;;;;;;21.17;51.24;97609.70;116105;1184;72003;-68
2021/09/14 07:36:11;;;;;;;;;;;;;;;21.34;50.91;97610.19;116147;1180;69638;-70
2021/09/14 07:38:42;;;;;;;;;;;;;;;21.60;50.64;97612.25;116055;1184;68818;-68
2021/09/14 07:41:11;;;;;;;;;;;;;;;22.06;49.33;97609.30;116103;1183;60333;-68
2021/09/14 07:43:40;;;;;;;;;;;;;;;22.61;47.82;97616.05;116192;1182;60352;-68
2021/09/14 07:46:10;;;;;;;;;;;;;;;23.24;46.35;97615.17;116205;1182;71405;-67
2021/09/14 07:48:39;;;;;;;;;;;;;;;23.46;45.58;97620.02;116204;1183;69279;-67
2021/09/14 07:51:08;;;;;;;;;;;;;;;23.71;45.10;97614.20;116191;1178;68478;-68
2021/09/14 07:53:37;;;;;;;;;;;;;;;24.31;44.49;97611.69;116328;1181;60326;-68
2021/09/14 07:56:06;;;;;;;;;;;;;;;24.96;42.40;97612.93;116178;1182;60310;-68
2021/09/14 07:58:35;;;;;;;;;;;;;;;24.37;42.46;97611.29;116128;1184;72438;-67
2021/09/14 08:01:04;;;;;;;;;;;;;;;24.41;42.57;97609.52;116176;1180;69304;-68
2021/09/14 08:03:34;;;;;;;;;;;;;;;24.07;43.45;97614.34;116191;1182;68523;-68
2021/09/14 08:06:06;;;;;;;;;;;;;;;23.84;43.75;97617.34;116105;1182;60364;-68
2021/09/14 08:08:35;;;;;;;;;;;;;;;24.33;43.54;97610.80;116194;1178;60361;-69
2021/09/14 08:11:04;;;;;;;;;;;;;;;24.55;42.84;97613.10;116192;1178;71350;-67
2021/09/14 08:13:37;;;;;;;;;;;;;;;24.63;42.23;97610.23;116166;1184;68305;-68
2021/09/14 08:16:06;;;;;;;;;;;;;;;24.53;42.53;97607.95;116187;1183;69105;-68
2021/09/14 08:18:34;;;;;;;;;;;;;;;25.38;41.67;97608.55;116181;1182;60351;-70
2021/09/14 08:21:03;;;;;;;;;;;;;;;25.82;40.15;97603.38;116204;1182;60429;-69
2021/09/14 08:23:34;;;;;;;;;;;;;;;26.30;39.54;97605.84;116210;1182;72004;-68
2021/09/14 08:26:03;;;;;;;;;;;;;;;26.66;38.28;97605.81;116299;1180;69113;-68
2021/09/14 08:28:32;;;;;;;;;;;;;;;26.69;37.96;97606.02;116344;1181;69356;-70
2021/09/14 08:31:09;;;;;;;;;;;;;;;25.88;39.07;97603.86;116233;1182;60346;-70
2021/09/14 08:33:38;;;;;;;;;;;;;;;25.41;40.38;97600.20;116403;1180;60316;-70
2021/09/14 08:36:07;;;;;;;;;;;;;;;26.01;40.31;97602.83;116338;1181;71929;-71
2021/09/14 08:38:36;;;;;;;;;;;;;;;26.62;39.55;97599.79;116261;1181;69155;-69
2021/09/14 08:41:06;;;;;;;;;;;;;;;26.49;38.79;97600.64;116277;1181;69234;-70
2021/09/14 08:43:40;;;;;;;;;;;;;;;25.95;39.21;97597.88;116253;1182;60301;-70
2021/09/14 08:46:10;;;;;;;;;;;;;;;26.33;39.21;97599.23;116252;1182;60810;-71
2021/09/14 08:48:39;;;;;;;;;;;;;;;26.11;38.64;97601.80;116254;1178;72145;-70
2021/09/14 08:51:08;;;;;;;;;;;;;;;25.92;39.71;97600.77;116256;1181;68239;-70
2021/09/14 08:53:37;;;;;;;;;;;;;;;26.28;39.03;97599.21;116253;1182;68324;-70
2021/09/14 08:56:08;;;;;;;;;;;;;;;26.57;39.08;97596.16;116187;1178;60369;-69
2021/09/14 08:58:37;;;;;;;;;;;;;;;26.90;37.58;97594.66;116270;1182;60329;-69
2021/09/14 09:01:09;;;;;;;;;;;;;;;27.03;37.08;97598.08;116274;1182;71385;-68
2021/09/14 09:03:39;;;;;;;;;;;;;;;26.90;37.47;97595.48;116278;1178;68423;-71
2021/09/14 09:06:08;;;;;;;;;;;;;;;25.64;39.34;97591.87;116332;1181;68565;-68
2021/09/14 09:08:36;;;;;;;;;;;;;;;25.41;40.16;97594.27;116261;1178;60347;-68
2021/09/14 09:11:06;;;;;;;;;;;;;;;26.14;39.60;97593.93;116288;1180;60348;-66
2021/09/14 09:13:41;;;;;;;;;;;;;;;26.75;38.00;97592.29;116376;1181;71217;-70
2021/09/14 09:16:20;;;;;;;;;;;;;;;27.16;36.67;97596.80;116293;1178;68982;-69
2021/09/14 09:18:49;;;;;;;;;;;;;;;27.50;35.80;97593.20;116037;1180;69502;-68
2021/09/14 09:21:18;;;;;;;;;;;;;;;27.57;35.92;97590.77;116196;1182;60341;-68
2021/09/14 09:23:54;;;;;;;;;;;;;;;27.90;36.18;97591.23;116286;1179;60339;-69
2021/09/14 09:26:34;;;;;;;;;;;;;;;27.98;35.22;97590.95;116191;1178;71238;-67
2021/09/14 09:29:05;;;;;;;;;;;;;;;27.37;35.43;97586.40;116144;1183;69377;-67
2021/09/14 09:31:35;;;;;;;;;;;;;;;27.15;36.02;97588.94;116160;1183;69242;-68
2021/09/14 09:34:04;;;;;;;;;;;;;;;27.12;36.05;97585.30;116236;1181;60346;-68
2021/09/14 09:36:39;;;;;;;;;;;;;;;27.33;35.89;97587.71;116174;1184;60334;-67
2021/09/14 09:39:11;;;;;;;;;;;;;;;27.12;36.03;97583.56;116243;1182;71274;-67
2021/09/14 09:41:50;;;;;;;;;;;;;;;27.70;35.74;97586.28;116225;1182;69172;-68
2021/09/14 09:44:19;;;;;;;;;;;;;;;28.17;35.22;97581.50;116247;1181;69210;-69
2021/09/14 09:46:55;;;;;;;;;;;;;;;28.68;33.19;97574.49;116266;1181;60377;-69
2021/09/14 09:49:24;;;;;;;;;;;;;;;29.17;33.42;97578.20;116452;1180;60351;-69
2021/09/14 09:51:54;;;;;;;;;;;;;;;29.40;31.92;97574.52;116316;1181;72147;-69
2021/09/14 09:54:24;;;;;;;;;;;;;;;29.92;31.02;97572.05;116242;1179;69175;-69
2021/09/14 09:56:53;;;;;;;;;;;;;;;29.42;31.59;97574.27;116201;1178;69213;-67
2021/09/14 09:59:21;;;;;;;;;;;;;;;30.04;31.29;97569.67;116206;1181;60395;-72
2021/09/14 10:02:05;;;;;;;;;;;;;;;30.55;31.24;97568.58;116271;1181;60787;-69
2021/09/14 10:04:53;;;;;;;;;;;;;;;30.68;30.19;97564.77;116276;1181;71931;-70
2021/09/14 10:07:26;;;;;;;;;;;;;;;31.36;29.83;97565.77;116285;1181;68360;-69
2021/09/14 10:09:57;;;;;;;;;;;;;;;32.04;29.51;97564.16;116210;1179;68294;-70
2021/09/14 10:12:26;;;;;;;;;;;;;;;32.71;27.75;97556.33;116288;1181;60359;-68
2021/09/14 10:14:57;;;;;;;;;;;;;;;32.80;27.39;97553.80;116286;1178;60331;-68
2021/09/14 10:17:26;;;;;;;;;;;;;;;33.03;26.22;97551.35;116417;1181;72171;-68
2021/09/14 10:20:08;;;;;;;;;;;;;;;33.61;26.56;97553.11;116332;1182;68993;-69
2021/09/14 10:22:36;;;;;;;;;;;;;;;33.96;23.86;97549.16;116224;1178;68689;-70
2021/09/14 10:25:07;;;;;;;;;;;;;;;34.04;23.83;97543.60;116365;1181;60768;-72
2021/09/14 10:27:39;;;;;;;;;;;;;;;34.35;22.82;97540.42;116256;1182;60333;-70
2021/09/14 10:30:09;;;;;;;;;;;;;;;34.29;23.12;97540.21;116212;1182;72054;-69
2021/09/14 10:32:39;;;;;;;;;;;;;;;34.70;22.97;97535.17;116290;1177;68622;-70
2021/09/14 10:35:09;;;;;;;;;;;;;;;34.75;22.77;97536.83;116280;1178;69303;-71
2021/09/14 10:37:39;;;;;;;;;;;;;;;33.83;23.27;97532.05;116161;1181;60323;-70
2021/09/14 10:40:14;;;;;;;;;;;;;;;33.85;24.40;97533.71;116170;1183;60355;-72
2021/09/14 10:42:44;;;;;;;;;;;;;;;34.34;24.35;97532.05;116358;1181;71191;-71
2021/09/14 10:45:14;;;;;;;;;;;;;;;34.86;23.93;97530.80;116256;1178;68709;-71
2021/09/14 10:47:51;;;;;;;;;;;;;;;35.58;23.28;97532.41;116259;1177;68564;-68
2021/09/14 10:50:27;;;;;;;;;;;;;;;35.84;21.74;97530.08;116385;1179;60816;-68
2021/09/14 10:52:57;;;;;;;;;;;;;;;36.31;21.13;97528.45;116306;1179;60363;-68
2021/09/14 10:55:26;;;;;;;;;;;;;;;36.08;21.04;97528.61;116269;1181;71525;-71
2021/09/14 10:58:02;;;;;;;;;;;;;;;36.44;20.94;97526.84;116296;1181;68760;-71
2021/09/14 11:00:34;;;;;;;;;;;;;;;36.94;19.87;97523.07;116253;1181;69308;-70
2021/09/14 11:03:06;;;;;;;;;;;;;;;36.97;19.98;97520.44;116295;1181;61271;-69
2021/09/14 11:05:36;;;;;;;;;;;;;;;37.62;20.34;97518.70;116364;1181;60337;-68
2021/09/14 11:08:09;;;;;;;;;;;;;;;37.99;20.14;97522.92;116369;1179;72445;-68
2021/09/14 11:10:39;;;;;;;;;;;;;;;38.36;19.78;97519.58;116310;1182;69192;-69
2021/09/14 11:13:09;;;;;;;;;;;;;;;38.33;19.49;97518.47;116308;1177;68413;-69
2021/09/14 11:15:37;;;;;;;;;;;;;;;38.18;19.63;97516.70;116152;1179;60320;-68
2021/09/14 11:18:06;;;;;;;;;;;;;;;37.98;20.01;97514.77;116304;1178;60323;-69
2021/09/14 11:20:36;;;;;;;;;;;;;;;38.52;19.24;97512.06;116363;1179;71466;-71
2021/09/14 11:23:05;;;;;;;;;;;;;;;39.01;19.12;97509.15;116248;1178;69080;-71
2021/09/14 11:25:34;;;;;;;;;;;;;;;39.45;18.61;97511.33;116355;1182;69210;-72
2021/09/14 11:28:04;;;;;;;;;;;;;;;39.92;17.33;97507.83;116330;1182;60337;-70
2021/09/14 11:30:35;;;;;;;;;;;;;;;40.17;17.48;97507.98;116456;1177;60302;-70
2021/09/14 11:33:04;;;;;;;;;;;;;;;40.11;17.36;97509.21;116291;1178;72601;-72
2021/09/14 11:35:35;;;;;;;;;;;;;;;40.16;17.86;97506.29;116352;1179;68538;-71
2021/09/14 11:38:06;;;;;;;;;;;;;;;40.03;17.64;97506.20;116306;1178;68333;-72
2021/09/14 11:40:43;;;;;;;;;;;;;;;40.04;18.17;97505.77;116291;1181;60336;-73
2021/09/14 11:43:17;;;;;;;;;;;;;;;40.22;18.37;97505.56;116199;1182;60412;-73
2021/09/14 11:45:46;;;;;;;;;;;;;;;40.07;17.57;97503.63;116274;1183;71973;-72
2021/09/14 11:48:20;;;;;;;;;;;;;;;39.66;17.56;97507.13;116219;1179;68542;-72
2021/09/14 11:51:09;;;;;;;;;;;;;;;39.30;18.03;97505.30;116350;1181;68448;-71
2021/09/14 11:53:39;;;;;;;;;;;;;;;39.11;18.03;97497.61;116287;1182;60355;-74
2021/09/14 11:56:12;;;;;;;;;;;;;;;38.84;18.44;97496.31;116287;1181;60269;-75
2021/09/14 11:58:42;;;;;;;;;;;;;;;38.65;18.10;97495.44;116251;1177;72207;-71
2021/09/14 12:01:12;;;;;;;;;;;;;;;38.53;18.57;97490.41;116247;1178;69684;-71
2021/09/14 12:03:46;;;;;;;;;;;;;;;35.66;20.92;97488.52;116263;1178;68323;-71
2021/09/14 12:06:23;;;;;;;;;;;;;;;34.77;22.15;97486.70;116300;1178;60787;-70
2021/09/14 12:08:55;;;;;;;;;;;;;;;34.43;22.25;97480.45;116302;1179;60279;-73
2021/09/14 12:11:28;;;;;;;;;;;;;;;35.49;21.85;97481.79;116302;1179;72133;-71
2021/09/14 12:13:58;;;;;;;;;;;;;;;36.24;21.74;97472.94;116278;1181;68401;-70
2021/09/14 12:16:28;;;;;;;;;;;;;;;36.07;21.69;97475.02;116172;1178;68955;-68
2021/09/14 12:19:00;;;;;;;;;;;;;;;35.30;21.99;97476.98;116413;1177;60351;-69
2021/09/14 12:21:28;;;;;;;;;;;;;;;34.95;22.58;97469.77;116556;1179;60324;-69
2021/09/14 12:23:58;;;;;;;;;;;;;;;35.13;22.32;97467.00;116311;1181;72234;-68
2021/09/14 12:26:37;;;;;;;;;;;;;;;35.42;21.95;97467.92;116349;1182;69293;-75
2021/09/14 12:29:08;;;;;;;;;;;;;;;35.84;21.55;97461.98;116262;1182;68328;-71
2021/09/14 12:31:37;;;;;;;;;;;;;;;36.33;21.17;97457.59;116309;1179;60352;-72
2021/09/14 12:34:08;;;;;;;;;;;;;;;36.74;21.12;97457.34;116341;1181;60346;-69
2021/09/14 12:36:39;;;;;;;;;;;;;;;37.26;20.46;97459.98;116266;1183;71339;-70
2021/09/14 12:39:09;;;;;;;;;;;;;;;37.82;19.38;97460.69;116270;1183;69190;-71
2021/09/14 12:41:38;;;;;;;;;;;;;;;37.97;19.08;97456.04;116401;1181;69220;-68
2021/09/14 12:44:07;;;;;;;;;;;;;;;37.50;19.26;97461.75;116291;1182;60341;-70
2021/09/14 12:46:36;;;;;;;;;;;;;;;37.63;19.28;97460.73;116319;1181;60352;-74
2021/09/14 12:49:05;;;;;;;;;;;;;;;37.82;19.38;97459.88;116279;1182;71364;-71
2021/09/14 12:51:34;;;;;;;;;;;;;;;38.20;19.35;97454.30;116318;1181;69225;-69
2021/09/14 12:54:03;;;;;;;;;;;;;;;38.66;18.78;97451.63;116294;1178;69245;-72
2021/09/14 12:56:32;;;;;;;;;;;;;;;38.86;18.50;97452.22;116297;1181;60335;-69
2021/09/14 12:59:02;;;;;;;;;;;;;;;38.58;17.78;97447.67;116346;1181;60342;-73
2021/09/14 13:01:30;;;;;;;;;;;;;;;38.87;18.17;97448.30;116411;1180;72043;-72
2021/09/14 13:04:00;;;;;;;;;;;;;;;38.93;18.49;97448.05;116514;1180;69089;-72
2021/09/14 13:06:28;;;;;;;;;;;;;;;38.67;18.09;97443.19;116451;1178;68445;-71
2021/09/14 13:08:57;;;;;;;;;;;;;;;38.91;17.90;97442.90;116332;1181;60355;-69
2021/09/14 13:11:26;;;;;;;;;;;;;;;38.89;18.07;97443.52;116361;1178;60639;-68
2021/09/14 13:16:43;;;;;;;;;;;;;;;38.88;17.81;97437.80;116297;1179;69629;-70
2021/09/14 13:19:11;;;;;;;;;;;;;;;38.93;18.29;97438.66;116396;1181;68866;-72
2021/09/14 13:21:40;;;;;;;;;;;;;;;38.93;18.56;97438.94;116262;1178;60394;-73
2021/09/14 13:24:09;;;;;;;;;;;;;;;38.42;18.61;97437.56;116183;1178;60432;-69
2021/09/14 13:26:38;;;;;;;;;;;;;;;37.44;19.30;97437.35;116226;1182;72188;-73
2021/09/14 13:29:07;;;;;;;;;;;;;;;36.33;20.03;97435.09;116271;1182;69653;-72
2021/09/14 13:31:36;;;;;;;;;;;;;;;35.38;20.92;97442.27;116202;1178;68697;-73
2021/09/14 13:34:04;;;;;;;;;;;;;;;35.24;21.33;97442.95;116270;1183;60358;-74
2021/09/14 13:36:33;;;;;;;;;;;;;;;35.56;21.26;97444.52;116185;1181;60383;-70
2021/09/14 13:39:02;;;;;;;;;;;;;;;35.06;20.82;97439.29;116442;1182;71305;-69
2021/09/14 13:41:36;;;;;;;;;;;;;;;34.33;21.79;97432.77;116372;1179;68938;-69
2021/09/14 13:46:52;;;;;;;;;;;;;;;33.06;23.42;97426.66;116245;1181;60359;-71
2021/09/14 13:49:21;;;;;;;;;;;;;;;32.48;24.14;97429.20;116324;1178;60315;-71
2021/09/14 13:51:52;;;;;;;;;;;;;;;33.44;23.75;97426.19;116292;1183;72157;-68
2021/09/14 13:54:20;;;;;;;;;;;;;;;33.89;22.54;97422.98;116192;1181;69137;-69
2021/09/14 13:56:50;;;;;;;;;;;;;;;34.03;22.17;97425.15;116242;1183;68307;-69
2021/09/14 13:59:22;;;;;;;;;;;;;;;33.92;22.97;97423.88;116242;1179;60265;-70